sensor_id;sensor_type;location;lat;lon;timestamp;P1;durP1;ratioP1;P2;durP2;ratioP2
75698;SDS011;64313;51.018;13.742;2022-11-03T00:01:32;6.97;;;2.60;;
75698;SDS011;64313;51.018;13.742;2022-11-03T00:04:05;8.27;;;2.47;;
75698;SDS011;64313;51.018;13.742;2022-11-03T00:06:32;8.05;;;2.40;;
75698;SDS011;64313;51.018;13.742;2022-11-03T00:08:59;6.32;;;2.25;;
75698;SDS011;64313;51.018;13.742;2022-11-03T00:11:26;5.97;;;2.45;;
75698;SDS011;64313;51.018;13.742;2022-11-03T00:13:52;7.75;;;2.72;;
75698;SDS011;64313;51.018;13.742;2022-11-03T00:16:17;5.97;;;2.30;;
75698;SDS011;64313;51.018;13.742;2022-11-03T00:18:43;5.20;;;2.08;;
75698;SDS011;64313;51.018;13.742;2022-11-03T00:21:09;6.57;;;2.42;;
75698;SDS011;64313;51.018;13.742;2022-11-03T00:23:37;6.10;;;2.03;;
75698;SDS011;64313;51.018;13.742;2022-11-03T00:26:05;6.50;;;2.30;;
75698;SDS011;64313;51.018;13.742;2022-11-03T00:28:33;5.35;;;2.00;;
75698;SDS011;64313;51.018;13.742;2022-11-03T00:31:00;5.88;;;2.15;;
75698;SDS011;64313;51.018;13.742;2022-11-03T00:33:32;9.00;;;2.50;;
75698;SDS011;64313;51.018;13.742;2022-11-03T00:35:58;6.00;;;2.10;;
75698;SDS011;64313;51.018;13.742;2022-11-03T00:38:25;7.32;;;2.25;;
75698;SDS011;64313;51.018;13.742;2022-11-03T00:40:52;4.95;;;1.83;;
75698;SDS011;64313;51.018;13.742;2022-11-03T00:43:21;6.40;;;2.15;;
75698;SDS011;64313;51.018;13.742;2022-11-03T00:45:47;6.97;;;2.10;;
75698;SDS011;64313;51.018;13.742;2022-11-03T00:48:13;5.63;;;2.20;;
75698;SDS011;64313;51.018;13.742;2022-11-03T00:51:04;6.78;;;2.00;;
75698;SDS011;64313;51.018;13.742;2022-11-03T00:53:30;5.47;;;1.73;;
75698;SDS011;64313;51.018;13.742;2022-11-03T00:55:57;5.95;;;1.60;;
75698;SDS011;64313;51.018;13.742;2022-11-03T00:58:22;7.13;;;2.13;;
75698;SDS011;64313;51.018;13.742;2022-11-03T01:03:13;5.00;;;1.60;;
75698;SDS011;64313;51.018;13.742;2022-11-03T01:05:42;4.88;;;1.73;;
75698;SDS011;64313;51.018;13.742;2022-11-03T01:08:33;5.13;;;1.70;;
75698;SDS011;64313;51.018;13.742;2022-11-03T01:11:09;7.68;;;1.65;;
75698;SDS011;64313;51.018;13.742;2022-11-03T01:13:55;6.22;;;1.90;;
75698;SDS011;64313;51.018;13.742;2022-11-03T01:16:20;6.32;;;1.58;;
75698;SDS011;64313;51.018;13.742;2022-11-03T01:21:11;5.93;;;1.60;;
75698;SDS011;64313;51.018;13.742;2022-11-03T01:26:02;4.93;;;1.70;;
75698;SDS011;64313;51.018;13.742;2022-11-03T01:28:32;5.13;;;1.77;;
75698;SDS011;64313;51.018;13.742;2022-11-03T01:31:03;8.32;;;1.77;;
75698;SDS011;64313;51.018;13.742;2022-11-03T01:33:33;7.22;;;2.10;;
75698;SDS011;64313;51.018;13.742;2022-11-03T01:35:59;5.85;;;1.70;;
75698;SDS011;64313;51.018;13.742;2022-11-03T01:38:24;6.30;;;2.00;;
75698;SDS011;64313;51.018;13.742;2022-11-03T01:43:19;7.27;;;2.10;;
75698;SDS011;64313;51.018;13.742;2022-11-03T01:45:48;6.00;;;1.67;;
75698;SDS011;64313;51.018;13.742;2022-11-03T01:48:17;5.93;;;1.73;;
75698;SDS011;64313;51.018;13.742;2022-11-03T01:50:45;6.68;;;1.60;;
75698;SDS011;64313;51.018;13.742;2022-11-03T01:53:11;5.10;;;1.27;;
75698;SDS011;64313;51.018;13.742;2022-11-03T01:55:39;6.07;;;1.58;;
75698;SDS011;64313;51.018;13.742;2022-11-03T02:00:34;5.30;;;1.33;;
75698;SDS011;64313;51.018;13.742;2022-11-03T02:03:00;7.18;;;1.70;;
75698;SDS011;64313;51.018;13.742;2022-11-03T02:10:23;4.90;;;1.35;;
75698;SDS011;64313;51.018;13.742;2022-11-03T02:12:49;5.07;;;1.48;;
75698;SDS011;64313;51.018;13.742;2022-11-03T02:15:16;6.15;;;1.65;;
75698;SDS011;64313;51.018;13.742;2022-11-03T02:17:45;6.35;;;1.85;;
75698;SDS011;64313;51.018;13.742;2022-11-03T02:20:21;7.05;;;1.60;;
75698;SDS011;64313;51.018;13.742;2022-11-03T02:28:02;7.07;;;1.60;;
75698;SDS011;64313;51.018;13.742;2022-11-03T02:36:45;6.05;;;1.80;;
75698;SDS011;64313;51.018;13.742;2022-11-03T02:39:23;7.28;;;1.80;;
75698;SDS011;64313;51.018;13.742;2022-11-03T02:41:52;6.47;;;1.83;;
75698;SDS011;64313;51.018;13.742;2022-11-03T02:44:21;5.53;;;1.63;;
75698;SDS011;64313;51.018;13.742;2022-11-03T02:46:49;5.95;;;1.60;;
75698;SDS011;64313;51.018;13.742;2022-11-03T02:49:20;6.80;;;1.67;;
75698;SDS011;64313;51.018;13.742;2022-11-03T02:54:13;6.80;;;1.90;;
75698;SDS011;64313;51.018;13.742;2022-11-03T02:57:01;6.78;;;2.10;;
75698;SDS011;64313;51.018;13.742;2022-11-03T02:59:36;7.13;;;1.75;;
75698;SDS011;64313;51.018;13.742;2022-11-03T03:02:08;5.20;;;1.75;;
75698;SDS011;64313;51.018;13.742;2022-11-03T03:05:01;5.28;;;1.83;;
75698;SDS011;64313;51.018;13.742;2022-11-03T03:07:31;5.72;;;1.77;;
75698;SDS011;64313;51.018;13.742;2022-11-03T03:12:37;5.03;;;1.95;;
75698;SDS011;64313;51.018;13.742;2022-11-03T03:15:07;8.65;;;2.25;;
75698;SDS011;64313;51.018;13.742;2022-11-03T03:20:13;7.57;;;2.13;;
75698;SDS011;64313;51.018;13.742;2022-11-03T03:22:54;7.70;;;2.42;;
75698;SDS011;64313;51.018;13.742;2022-11-03T03:25:30;5.38;;;2.17;;
75698;SDS011;64313;51.018;13.742;2022-11-03T03:28:02;8.88;;;2.35;;
75698;SDS011;64313;51.018;13.742;2022-11-03T03:30:33;5.35;;;2.03;;
75698;SDS011;64313;51.018;13.742;2022-11-03T03:33:00;6.15;;;2.25;;
75698;SDS011;64313;51.018;13.742;2022-11-03T03:35:29;6.60;;;2.45;;
75698;SDS011;64313;51.018;13.742;2022-11-03T03:37:58;7.15;;;2.40;;
75698;SDS011;64313;51.018;13.742;2022-11-03T03:40:30;8.70;;;2.97;;
75698;SDS011;64313;51.018;13.742;2022-11-03T03:42:59;8.48;;;2.70;;
75698;SDS011;64313;51.018;13.742;2022-11-03T03:45:28;7.00;;;2.30;;
75698;SDS011;64313;51.018;13.742;2022-11-03T03:47:55;6.00;;;2.22;;
75698;SDS011;64313;51.018;13.742;2022-11-03T03:52:47;6.00;;;1.90;;
75698;SDS011;64313;51.018;13.742;2022-11-03T03:55:16;6.22;;;2.28;;
75698;SDS011;64313;51.018;13.742;2022-11-03T04:00:15;7.13;;;2.08;;
75698;SDS011;64313;51.018;13.742;2022-11-03T04:02:41;6.00;;;2.10;;
75698;SDS011;64313;51.018;13.742;2022-11-03T04:07:32;6.40;;;2.10;;
75698;SDS011;64313;51.018;13.742;2022-11-03T04:10:13;5.38;;;1.73;;
75698;SDS011;64313;51.018;13.742;2022-11-03T04:12:40;6.30;;;1.90;;
75698;SDS011;64313;51.018;13.742;2022-11-03T04:15:24;5.93;;;1.90;;
75698;SDS011;64313;51.018;13.742;2022-11-03T04:18:08;4.97;;;1.90;;
75698;SDS011;64313;51.018;13.742;2022-11-03T04:20:52;9.82;;;2.20;;
75698;SDS011;64313;51.018;13.742;2022-11-03T04:23:36;5.72;;;2.00;;
75698;SDS011;64313;51.018;13.742;2022-11-03T04:28:29;6.85;;;2.00;;
75698;SDS011;64313;51.018;13.742;2022-11-03T04:33:20;7.57;;;2.35;;
75698;SDS011;64313;51.018;13.742;2022-11-03T04:35:46;7.32;;;2.42;;
75698;SDS011;64313;51.018;13.742;2022-11-03T04:43:14;7.65;;;2.72;;
75698;SDS011;64313;51.018;13.742;2022-11-03T04:45:43;5.82;;;2.55;;
75698;SDS011;64313;51.018;13.742;2022-11-03T04:50:39;7.80;;;2.90;;
75698;SDS011;64313;51.018;13.742;2022-11-03T04:53:11;8.25;;;2.70;;
75698;SDS011;64313;51.018;13.742;2022-11-03T04:55:38;6.63;;;2.50;;
75698;SDS011;64313;51.018;13.742;2022-11-03T04:58:47;7.20;;;2.85;;
75698;SDS011;64313;51.018;13.742;2022-11-03T05:00:58;7.40;;;2.30;;
75698;SDS011;64313;51.018;13.742;2022-11-03T05:03:29;7.80;;;2.30;;
75698;SDS011;64313;51.018;13.742;2022-11-03T05:05:57;7.70;;;2.58;;
75698;SDS011;64313;51.018;13.742;2022-11-03T05:08:25;7.57;;;2.45;;
75698;SDS011;64313;51.018;13.742;2022-11-03T05:13:24;6.28;;;2.17;;
75698;SDS011;64313;51.018;13.742;2022-11-03T05:15:51;7.35;;;2.55;;
75698;SDS011;64313;51.018;13.742;2022-11-03T05:18:28;8.27;;;3.08;;
75698;SDS011;64313;51.018;13.742;2022-11-03T05:21:02;7.25;;;2.67;;
75698;SDS011;64313;51.018;13.742;2022-11-03T05:23:31;7.82;;;3.55;;
75698;SDS011;64313;51.018;13.742;2022-11-03T05:26:02;9.57;;;3.15;;
75698;SDS011;64313;51.018;13.742;2022-11-03T05:28:34;8.02;;;3.10;;
75698;SDS011;64313;51.018;13.742;2022-11-03T05:33:57;8.80;;;3.30;;
75698;SDS011;64313;51.018;13.742;2022-11-03T05:36:24;7.95;;;2.63;;
75698;SDS011;64313;51.018;13.742;2022-11-03T05:38:53;9.55;;;2.83;;
75698;SDS011;64313;51.018;13.742;2022-11-03T05:41:23;7.90;;;2.80;;
75698;SDS011;64313;51.018;13.742;2022-11-03T05:43:58;6.75;;;2.53;;
75698;SDS011;64313;51.018;13.742;2022-11-03T05:46:26;8.50;;;2.80;;
75698;SDS011;64313;51.018;13.742;2022-11-03T05:48:54;7.03;;;2.30;;
75698;SDS011;64313;51.018;13.742;2022-11-03T05:53:58;7.32;;;2.45;;
75698;SDS011;64313;51.018;13.742;2022-11-03T05:56:27;6.65;;;2.35;;
75698;SDS011;64313;51.018;13.742;2022-11-03T06:01:23;6.18;;;2.13;;
75698;SDS011;64313;51.018;13.742;2022-11-03T06:03:52;7.50;;;2.58;;
75698;SDS011;64313;51.018;13.742;2022-11-03T06:08:55;8.07;;;3.28;;
75698;SDS011;64313;51.018;13.742;2022-11-03T06:11:26;7.72;;;3.28;;
75698;SDS011;64313;51.018;13.742;2022-11-03T06:13:54;7.22;;;3.00;;
75698;SDS011;64313;51.018;13.742;2022-11-03T06:19:13;7.28;;;2.80;;
75698;SDS011;64313;51.018;13.742;2022-11-03T06:21:43;8.23;;;3.30;;
75698;SDS011;64313;51.018;13.742;2022-11-03T06:24:10;9.90;;;3.45;;
75698;SDS011;64313;51.018;13.742;2022-11-03T06:26:38;8.35;;;3.38;;
75698;SDS011;64313;51.018;13.742;2022-11-03T06:29:07;9.93;;;3.45;;
75698;SDS011;64313;51.018;13.742;2022-11-03T06:31:44;10.85;;;3.33;;
75698;SDS011;64313;51.018;13.742;2022-11-03T06:36:44;9.75;;;3.40;;
75698;SDS011;64313;51.018;13.742;2022-11-03T06:41:41;8.90;;;3.28;;
75698;SDS011;64313;51.018;13.742;2022-11-03T06:46:56;7.75;;;3.13;;
75698;SDS011;64313;51.018;13.742;2022-11-03T06:49:29;9.13;;;3.33;;
75698;SDS011;64313;51.018;13.742;2022-11-03T06:52:19;9.02;;;3.42;;
75698;SDS011;64313;51.018;13.742;2022-11-03T06:54:54;8.52;;;3.58;;
75698;SDS011;64313;51.018;13.742;2022-11-03T06:57:24;11.30;;;3.80;;
75698;SDS011;64313;51.018;13.742;2022-11-03T07:02:25;9.77;;;3.50;;
75698;SDS011;64313;51.018;13.742;2022-11-03T07:05:29;11.93;;;3.83;;
75698;SDS011;64313;51.018;13.742;2022-11-03T07:07:55;9.07;;;3.85;;
75698;SDS011;64313;51.018;13.742;2022-11-03T07:10:26;8.85;;;3.90;;
75698;SDS011;64313;51.018;13.742;2022-11-03T07:12:53;8.60;;;3.63;;
75698;SDS011;64313;51.018;13.742;2022-11-03T07:15:22;11.98;;;4.03;;
75698;SDS011;64313;51.018;13.742;2022-11-03T07:17:50;15.98;;;4.18;;
75698;SDS011;64313;51.018;13.742;2022-11-03T07:20:17;12.85;;;4.20;;
75698;SDS011;64313;51.018;13.742;2022-11-03T07:25:09;9.52;;;3.55;;
75698;SDS011;64313;51.018;13.742;2022-11-03T07:27:40;8.77;;;3.85;;
75698;SDS011;64313;51.018;13.742;2022-11-03T07:32:42;11.48;;;3.90;;
75698;SDS011;64313;51.018;13.742;2022-11-03T07:37:48;8.70;;;3.67;;
75698;SDS011;64313;51.018;13.742;2022-11-03T07:40:15;9.23;;;3.83;;
75698;SDS011;64313;51.018;13.742;2022-11-03T07:42:42;10.27;;;3.85;;
75698;SDS011;64313;51.018;13.742;2022-11-03T07:47:52;10.77;;;3.33;;
75698;SDS011;64313;51.018;13.742;2022-11-03T07:52:44;9.85;;;3.70;;
75698;SDS011;64313;51.018;13.742;2022-11-03T07:55:09;8.13;;;3.15;;
75698;SDS011;64313;51.018;13.742;2022-11-03T07:57:36;8.10;;;3.58;;
75698;SDS011;64313;51.018;13.742;2022-11-03T08:02:46;9.25;;;3.30;;
75698;SDS011;64313;51.018;13.742;2022-11-03T08:05:15;8.52;;;3.25;;
75698;SDS011;64313;51.018;13.742;2022-11-03T08:10:05;8.87;;;3.73;;
75698;SDS011;64313;51.018;13.742;2022-11-03T08:14:57;8.35;;;3.28;;
75698;SDS011;64313;51.018;13.742;2022-11-03T08:19:47;9.13;;;3.60;;
75698;SDS011;64313;51.018;13.742;2022-11-03T08:22:13;8.00;;;3.35;;
75698;SDS011;64313;51.018;13.742;2022-11-03T08:27:03;8.53;;;3.20;;
75698;SDS011;64313;51.018;13.742;2022-11-03T08:31:54;11.40;;;3.65;;
75698;SDS011;64313;51.018;13.742;2022-11-03T08:34:20;9.23;;;3.40;;
75698;SDS011;64313;51.018;13.742;2022-11-03T08:39:11;7.93;;;3.60;;
75698;SDS011;64313;51.018;13.742;2022-11-03T08:41:36;8.48;;;3.05;;
75698;SDS011;64313;51.018;13.742;2022-11-03T08:44:02;7.80;;;3.25;;
75698;SDS011;64313;51.018;13.742;2022-11-03T08:48:52;8.50;;;3.15;;
75698;SDS011;64313;51.018;13.742;2022-11-03T08:54:47;7.53;;;3.17;;
75698;SDS011;64313;51.018;13.742;2022-11-03T08:59:38;8.53;;;2.97;;
75698;SDS011;64313;51.018;13.742;2022-11-03T09:04:28;8.77;;;2.65;;
75698;SDS011;64313;51.018;13.742;2022-11-03T09:09:19;9.53;;;2.80;;
75698;SDS011;64313;51.018;13.742;2022-11-03T09:14:10;8.13;;;2.85;;
75698;SDS011;64313;51.018;13.742;2022-11-03T09:16:36;9.55;;;3.17;;
75698;SDS011;64313;51.018;13.742;2022-11-03T09:21:26;7.60;;;2.80;;
75698;SDS011;64313;51.018;13.742;2022-11-03T09:23:52;9.75;;;2.95;;
75698;SDS011;64313;51.018;13.742;2022-11-03T09:28:43;10.57;;;2.63;;
75698;SDS011;64313;51.018;13.742;2022-11-03T09:31:08;10.25;;;2.58;;
75698;SDS011;64313;51.018;13.742;2022-11-03T09:33:33;9.48;;;2.65;;
75698;SDS011;64313;51.018;13.742;2022-11-03T09:35:59;11.20;;;2.75;;
75698;SDS011;64313;51.018;13.742;2022-11-03T09:38:25;7.18;;;2.28;;
75698;SDS011;64313;51.018;13.742;2022-11-03T09:40:51;8.45;;;2.33;;
75698;SDS011;64313;51.018;13.742;2022-11-03T09:43:16;7.93;;;2.40;;
75698;SDS011;64313;51.018;13.742;2022-11-03T09:45:42;7.47;;;2.28;;
75698;SDS011;64313;51.018;13.742;2022-11-03T09:48:11;6.65;;;2.30;;
75698;SDS011;64313;51.018;13.742;2022-11-03T09:50:37;8.27;;;2.55;;
75698;SDS011;64313;51.018;13.742;2022-11-03T09:53:03;8.27;;;2.65;;
75698;SDS011;64313;51.018;13.742;2022-11-03T09:55:29;7.35;;;2.55;;
75698;SDS011;64313;51.018;13.742;2022-11-03T09:57:56;5.60;;;2.30;;
75698;SDS011;64313;51.018;13.742;2022-11-03T10:00:24;5.90;;;1.90;;
75698;SDS011;64313;51.018;13.742;2022-11-03T10:02:51;5.85;;;2.20;;
75698;SDS011;64313;51.018;13.742;2022-11-03T10:05:21;6.43;;;1.88;;
75698;SDS011;64313;51.018;13.742;2022-11-03T10:07:48;6.93;;;1.40;;
75698;SDS011;64313;51.018;13.742;2022-11-03T10:10:19;4.65;;;1.35;;
75698;SDS011;64313;51.018;13.742;2022-11-03T10:12:47;5.50;;;1.20;;
75698;SDS011;64313;51.018;13.742;2022-11-03T10:15:14;5.63;;;1.30;;
75698;SDS011;64313;51.018;13.742;2022-11-03T10:17:41;4.25;;;0.93;;
75698;SDS011;64313;51.018;13.742;2022-11-03T10:20:09;3.97;;;1.15;;
75698;SDS011;64313;51.018;13.742;2022-11-03T10:22:36;4.47;;;1.17;;
75698;SDS011;64313;51.018;13.742;2022-11-03T10:27:51;3.53;;;0.95;;
75698;SDS011;64313;51.018;13.742;2022-11-03T10:30:16;4.68;;;0.90;;
75698;SDS011;64313;51.018;13.742;2022-11-03T10:32:42;4.55;;;1.00;;
75698;SDS011;64313;51.018;13.742;2022-11-03T10:35:30;8.00;;;1.30;;
75698;SDS011;64313;51.018;13.742;2022-11-03T10:38:08;4.90;;;0.90;;
75698;SDS011;64313;51.018;13.742;2022-11-03T10:43:35;3.42;;;0.88;;
75698;SDS011;64313;51.018;13.742;2022-11-03T10:48:43;4.25;;;0.90;;
75698;SDS011;64313;51.018;13.742;2022-11-03T10:51:09;6.72;;;1.75;;
75698;SDS011;64313;51.018;13.742;2022-11-03T10:53:36;4.30;;;0.90;;
75698;SDS011;64313;51.018;13.742;2022-11-03T10:56:01;3.28;;;1.02;;
75698;SDS011;64313;51.018;13.742;2022-11-03T10:58:28;4.88;;;1.10;;
75698;SDS011;64313;51.018;13.742;2022-11-03T11:00:54;5.38;;;1.10;;
75698;SDS011;64313;51.018;13.742;2022-11-03T11:03:20;7.85;;;1.17;;
75698;SDS011;64313;51.018;13.742;2022-11-03T11:05:45;7.10;;;1.27;;
75698;SDS011;64313;51.018;13.742;2022-11-03T11:08:12;4.35;;;1.05;;
75698;SDS011;64313;51.018;13.742;2022-11-03T11:10:45;5.13;;;1.38;;
75698;SDS011;64313;51.018;13.742;2022-11-03T11:28:29;5.38;;;1.30;;
75698;SDS011;64313;51.018;13.742;2022-11-03T11:30:55;6.68;;;1.80;;
75698;SDS011;64313;51.018;13.742;2022-11-03T11:33:22;4.00;;;0.90;;
75698;SDS011;64313;51.018;13.742;2022-11-03T11:41:16;3.15;;;0.85;;
75698;SDS011;64313;51.018;13.742;2022-11-03T11:43:42;5.15;;;1.30;;
75698;SDS011;64313;51.018;13.742;2022-11-03T11:51:34;8.40;;;1.80;;
75698;SDS011;64313;51.018;13.742;2022-11-03T11:54:03;6.68;;;1.45;;
75698;SDS011;64313;51.018;13.742;2022-11-03T11:56:30;4.47;;;1.30;;
75698;SDS011;64313;51.018;13.742;2022-11-03T11:58:56;5.28;;;1.67;;
75698;SDS011;64313;51.018;13.742;2022-11-03T12:03:52;6.43;;;1.63;;
75698;SDS011;64313;51.018;13.742;2022-11-03T12:06:37;5.80;;;1.48;;
75698;SDS011;64313;51.018;13.742;2022-11-03T12:09:05;6.75;;;2.22;;
75698;SDS011;64313;51.018;13.742;2022-11-03T12:11:40;5.82;;;1.45;;
75698;SDS011;64313;51.018;13.742;2022-11-03T12:14:21;6.93;;;1.90;;
75698;SDS011;64313;51.018;13.742;2022-11-03T12:16:53;7.32;;;1.67;;
75698;SDS011;64313;51.018;13.742;2022-11-03T12:19:36;5.43;;;1.70;;
75698;SDS011;64313;51.018;13.742;2022-11-03T12:24:54;6.05;;;1.48;;
75698;SDS011;64313;51.018;13.742;2022-11-03T12:30:05;6.15;;;1.60;;
75698;SDS011;64313;51.018;13.742;2022-11-03T12:32:37;7.20;;;1.92;;
75698;SDS011;64313;51.018;13.742;2022-11-03T12:35:03;5.20;;;1.63;;
75698;SDS011;64313;51.018;13.742;2022-11-03T12:37:29;4.82;;;1.60;;
75698;SDS011;64313;51.018;13.742;2022-11-03T12:39:54;5.30;;;1.60;;
75698;SDS011;64313;51.018;13.742;2022-11-03T12:42:20;6.07;;;1.65;;
75698;SDS011;64313;51.018;13.742;2022-11-03T12:44:46;5.10;;;1.52;;
75698;SDS011;64313;51.018;13.742;2022-11-03T12:47:12;4.93;;;1.40;;
75698;SDS011;64313;51.018;13.742;2022-11-03T12:49:37;6.57;;;1.33;;
75698;SDS011;64313;51.018;13.742;2022-11-03T12:52:02;6.55;;;1.30;;
75698;SDS011;64313;51.018;13.742;2022-11-03T12:54:31;6.65;;;1.30;;
75698;SDS011;64313;51.018;13.742;2022-11-03T12:56:57;7.55;;;1.55;;
75698;SDS011;64313;51.018;13.742;2022-11-03T12:59:23;5.78;;;1.48;;
75698;SDS011;64313;51.018;13.742;2022-11-03T13:01:48;5.40;;;1.33;;
75698;SDS011;64313;51.018;13.742;2022-11-03T13:04:13;7.10;;;1.50;;
75698;SDS011;64313;51.018;13.742;2022-11-03T13:06:39;5.07;;;1.50;;
75698;SDS011;64313;51.018;13.742;2022-11-03T13:09:04;4.47;;;1.40;;
75698;SDS011;64313;51.018;13.742;2022-11-03T13:11:30;6.25;;;1.63;;
75698;SDS011;64313;51.018;13.742;2022-11-03T13:16:38;6.53;;;1.63;;
75698;SDS011;64313;51.018;13.742;2022-11-03T13:19:04;6.82;;;1.80;;
75698;SDS011;64313;51.018;13.742;2022-11-03T13:21:29;7.50;;;1.75;;
75698;SDS011;64313;51.018;13.742;2022-11-03T13:23:55;8.30;;;2.60;;
75698;SDS011;64313;51.018;13.742;2022-11-03T13:26:20;7.78;;;2.70;;
75698;SDS011;64313;51.018;13.742;2022-11-03T13:28:45;6.68;;;2.65;;
75698;SDS011;64313;51.018;13.742;2022-11-03T13:31:11;6.78;;;2.58;;
75698;SDS011;64313;51.018;13.742;2022-11-03T13:33:37;8.00;;;2.70;;
75698;SDS011;64313;51.018;13.742;2022-11-03T13:36:02;9.68;;;2.65;;
75698;SDS011;64313;51.018;13.742;2022-11-03T13:38:28;9.07;;;2.72;;
75698;SDS011;64313;51.018;13.742;2022-11-03T13:40:53;7.60;;;2.65;;
75698;SDS011;64313;51.018;13.742;2022-11-03T13:43:19;7.80;;;2.55;;
75698;SDS011;64313;51.018;13.742;2022-11-03T13:45:45;10.68;;;2.55;;
75698;SDS011;64313;51.018;13.742;2022-11-03T13:48:10;7.20;;;2.53;;
75698;SDS011;64313;51.018;13.742;2022-11-03T13:50:36;9.55;;;2.60;;
75698;SDS011;64313;51.018;13.742;2022-11-03T13:53:01;8.15;;;2.78;;
75698;SDS011;64313;51.018;13.742;2022-11-03T13:55:26;7.22;;;2.67;;
75698;SDS011;64313;51.018;13.742;2022-11-03T13:57:52;7.63;;;2.58;;
75698;SDS011;64313;51.018;13.742;2022-11-03T14:00:17;8.00;;;2.45;;
75698;SDS011;64313;51.018;13.742;2022-11-03T14:02:43;5.65;;;2.35;;
75698;SDS011;64313;51.018;13.742;2022-11-03T14:05:09;7.05;;;2.20;;
75698;SDS011;64313;51.018;13.742;2022-11-03T14:07:35;6.65;;;2.38;;
75698;SDS011;64313;51.018;13.742;2022-11-03T14:10:01;8.20;;;2.33;;
75698;SDS011;64313;51.018;13.742;2022-11-03T14:12:27;8.05;;;2.50;;
75698;SDS011;64313;51.018;13.742;2022-11-03T14:14:59;6.97;;;2.50;;
75698;SDS011;64313;51.018;13.742;2022-11-03T14:17:25;7.53;;;2.50;;
75698;SDS011;64313;51.018;13.742;2022-11-03T14:19:51;8.02;;;2.63;;
75698;SDS011;64313;51.018;13.742;2022-11-03T14:22:17;8.82;;;2.40;;
75698;SDS011;64313;51.018;13.742;2022-11-03T14:24:45;9.10;;;2.60;;
75698;SDS011;64313;51.018;13.742;2022-11-03T14:27:11;8.18;;;2.28;;
75698;SDS011;64313;51.018;13.742;2022-11-03T14:29:37;9.05;;;2.60;;
75698;SDS011;64313;51.018;13.742;2022-11-03T14:32:03;8.73;;;2.75;;
75698;SDS011;64313;51.018;13.742;2022-11-03T14:34:28;11.60;;;3.33;;
75698;SDS011;64313;51.018;13.742;2022-11-03T14:36:54;7.82;;;2.90;;
75698;SDS011;64313;51.018;13.742;2022-11-03T14:39:19;7.30;;;2.88;;
75698;SDS011;64313;51.018;13.742;2022-11-03T14:41:44;7.00;;;3.08;;
75698;SDS011;64313;51.018;13.742;2022-11-03T14:46:54;9.85;;;2.70;;
75698;SDS011;64313;51.018;13.742;2022-11-03T14:49:20;8.65;;;2.80;;
75698;SDS011;64313;51.018;13.742;2022-11-03T14:51:46;9.80;;;3.15;;
75698;SDS011;64313;51.018;13.742;2022-11-03T14:54:12;11.10;;;3.05;;
75698;SDS011;64313;51.018;13.742;2022-11-03T14:56:37;7.18;;;3.20;;
75698;SDS011;64313;51.018;13.742;2022-11-03T14:59:02;9.00;;;3.22;;
75698;SDS011;64313;51.018;13.742;2022-11-03T15:01:28;8.45;;;3.17;;
75698;SDS011;64313;51.018;13.742;2022-11-03T15:03:53;7.80;;;3.20;;
75698;SDS011;64313;51.018;13.742;2022-11-03T15:06:18;10.23;;;3.17;;
75698;SDS011;64313;51.018;13.742;2022-11-03T15:08:44;8.60;;;3.38;;
75698;SDS011;64313;51.018;13.742;2022-11-03T15:11:09;7.90;;;3.97;;
75698;SDS011;64313;51.018;13.742;2022-11-03T15:13:35;8.88;;;3.40;;
75698;SDS011;64313;51.018;13.742;2022-11-03T15:16:01;6.78;;;3.28;;
75698;SDS011;64313;51.018;13.742;2022-11-03T15:18:27;7.15;;;3.30;;
75698;SDS011;64313;51.018;13.742;2022-11-03T15:20:53;9.82;;;3.22;;
75698;SDS011;64313;51.018;13.742;2022-11-03T15:23:18;7.30;;;3.08;;
75698;SDS011;64313;51.018;13.742;2022-11-03T15:25:43;10.45;;;3.65;;
75698;SDS011;64313;51.018;13.742;2022-11-03T15:28:09;7.75;;;2.90;;
75698;SDS011;64313;51.018;13.742;2022-11-03T15:30:35;9.23;;;3.30;;
75698;SDS011;64313;51.018;13.742;2022-11-03T15:33:01;10.23;;;3.25;;
75698;SDS011;64313;51.018;13.742;2022-11-03T15:35:26;8.00;;;3.47;;
75698;SDS011;64313;51.018;13.742;2022-11-03T15:37:52;9.70;;;3.47;;
75698;SDS011;64313;51.018;13.742;2022-11-03T15:40:17;8.43;;;3.67;;
75698;SDS011;64313;51.018;13.742;2022-11-03T15:42:43;10.40;;;4.05;;
75698;SDS011;64313;51.018;13.742;2022-11-03T15:45:10;7.45;;;3.53;;
75698;SDS011;64313;51.018;13.742;2022-11-03T15:47:37;9.57;;;4.07;;
75698;SDS011;64313;51.018;13.742;2022-11-03T15:50:03;9.73;;;3.80;;
75698;SDS011;64313;51.018;13.742;2022-11-03T15:52:29;8.13;;;3.53;;
75698;SDS011;64313;51.018;13.742;2022-11-03T15:54:55;9.65;;;3.50;;
75698;SDS011;64313;51.018;13.742;2022-11-03T15:57:20;10.52;;;3.85;;
75698;SDS011;64313;51.018;13.742;2022-11-03T15:59:45;9.20;;;3.90;;
75698;SDS011;64313;51.018;13.742;2022-11-03T16:02:11;9.02;;;4.10;;
75698;SDS011;64313;51.018;13.742;2022-11-03T16:04:36;10.52;;;4.13;;
75698;SDS011;64313;51.018;13.742;2022-11-03T16:07:04;8.75;;;3.90;;
75698;SDS011;64313;51.018;13.742;2022-11-03T16:09:30;9.60;;;4.10;;
75698;SDS011;64313;51.018;13.742;2022-11-03T16:11:55;7.82;;;3.60;;
75698;SDS011;64313;51.018;13.742;2022-11-03T16:14:21;8.60;;;3.63;;
75698;SDS011;64313;51.018;13.742;2022-11-03T16:16:46;8.57;;;4.22;;
75698;SDS011;64313;51.018;13.742;2022-11-03T16:19:11;10.80;;;3.83;;
75698;SDS011;64313;51.018;13.742;2022-11-03T16:21:37;10.18;;;3.92;;
75698;SDS011;64313;51.018;13.742;2022-11-03T16:24:02;9.18;;;3.90;;
75698;SDS011;64313;51.018;13.742;2022-11-03T16:26:28;7.88;;;3.53;;
75698;SDS011;64313;51.018;13.742;2022-11-03T16:28:55;7.75;;;3.45;;
75698;SDS011;64313;51.018;13.742;2022-11-03T16:31:23;9.90;;;3.42;;
75698;SDS011;64313;51.018;13.742;2022-11-03T16:33:49;9.00;;;4.07;;
75698;SDS011;64313;51.018;13.742;2022-11-03T16:36:15;7.38;;;3.70;;
75698;SDS011;64313;51.018;13.742;2022-11-03T16:38:41;9.20;;;4.03;;
75698;SDS011;64313;51.018;13.742;2022-11-03T16:41:07;9.18;;;4.00;;
75698;SDS011;64313;51.018;13.742;2022-11-03T16:43:32;10.10;;;4.03;;
75698;SDS011;64313;51.018;13.742;2022-11-03T16:45:57;9.65;;;4.10;;
75698;SDS011;64313;51.018;13.742;2022-11-03T16:48:23;12.15;;;4.00;;
75698;SDS011;64313;51.018;13.742;2022-11-03T16:50:48;9.70;;;3.95;;
75698;SDS011;64313;51.018;13.742;2022-11-03T16:53:13;10.50;;;3.90;;
75698;SDS011;64313;51.018;13.742;2022-11-03T16:55:39;9.07;;;3.88;;
75698;SDS011;64313;51.018;13.742;2022-11-03T16:58:04;10.43;;;3.90;;
75698;SDS011;64313;51.018;13.742;2022-11-03T17:00:32;9.27;;;3.45;;
75698;SDS011;64313;51.018;13.742;2022-11-03T17:02:58;9.13;;;3.67;;
75698;SDS011;64313;51.018;13.742;2022-11-03T17:05:23;8.32;;;3.95;;
75698;SDS011;64313;51.018;13.742;2022-11-03T17:07:49;9.63;;;3.97;;
75698;SDS011;64313;51.018;13.742;2022-11-03T17:10:14;10.60;;;3.80;;
75698;SDS011;64313;51.018;13.742;2022-11-03T17:12:39;10.18;;;3.78;;
75698;SDS011;64313;51.018;13.742;2022-11-03T17:15:05;8.88;;;3.67;;
75698;SDS011;64313;51.018;13.742;2022-11-03T17:17:31;9.65;;;3.85;;
75698;SDS011;64313;51.018;13.742;2022-11-03T17:19:56;8.85;;;3.60;;
75698;SDS011;64313;51.018;13.742;2022-11-03T17:22:22;10.60;;;4.03;;
75698;SDS011;64313;51.018;13.742;2022-11-03T17:24:48;8.80;;;3.60;;
75698;SDS011;64313;51.018;13.742;2022-11-03T17:27:14;10.90;;;3.80;;
75698;SDS011;64313;51.018;13.742;2022-11-03T17:29:47;8.55;;;3.85;;
75698;SDS011;64313;51.018;13.742;2022-11-03T17:35:01;9.55;;;3.60;;
75698;SDS011;64313;51.018;13.742;2022-11-03T17:37:26;10.85;;;3.72;;
75698;SDS011;64313;51.018;13.742;2022-11-03T17:39:52;7.90;;;4.10;;
75698;SDS011;64313;51.018;13.742;2022-11-03T17:42:21;10.75;;;4.30;;